首页
METAR-TAF:

METAR-TAF

机场 :

突尼斯, 突尼斯

突尼斯-迦太基国际机场

纬度: 36-50N, 经度: 010-14E, 海拔: 3米

当前天气观测

该预报发布于44分钟前的01:00 UTC
静风
温度 6°C
湿度 87%
气压 1020 hPa
能见度10公里或以上
少量云层高于2600英尺

METAR: DTTA 190100Z 00000KT 9999 FEW026 06/04 Q1020 NOSIG

时间: 02:44 (01:44 UTC)

预报

该预报发布于2小时和14分钟前的23:30 UTC
预报有效从19日的 00点(UTC)到 19日的 24点(UTC)
风速2节,风向南转南东
能见度10公里或以上
少量云层高于2600英尺
成为
从 19日的 03点(UTC)到 19日的 05点(UTC)
风速14节,风向西南

TAF: DTTA 182330Z 1900/1924 16002KT 9999 FEW026 BECMG 1903/1905 23014KT

超过4000个机场的气象观测和天气预报(METAR&TAF报告)。

可查询的气象台以黄色和红色小点在地图上表示。

将鼠标移到小点上方,可查看气象台名称。

然后点击查看天气观测和预报。

如需切换地图:点击带黑十字的绿色按钮放大地图;点击带横线的绿色按钮缩小地图;或者点击绿色箭头查看邻近地区的地图。


METAR-TAF: